Boston Corner, Indiana
Current Conditions -  °F | °C
As of 9:54 AM on Tuesday 21 Oct 2014 (Local Time) from KFWA Reporting Station
Broken Clouds Broken Clouds  
Wind Chill: 43°   Ceiling: 2500
Heat Index: 48°   Visibility: 10mi
Dew Point: 42°   Wind: 12mph
Humidity: 80%   Direction: 320°NW
Pressure: 30.05"   Gusts: NA
Location:  40.9863°N, 84.8797°W
Report Text: KFWA 211354Z 32010KT 10SM FEW016 BKN025 BKN049 09/06 A3005 RMK AO2 SLP178 T00890056
Loading
Personal Weather Stations






























Interactive Weather Map
Tropical Storm Tracking
New forecast layout! Learn more

10-Day Weather Forecast

Advertisements
Track Severe Weather on mobile